createdAt,value
2018-07-12T00:00:04.024Z,19.73
2018-07-12T00:02:31.466Z,20.83
2018-07-12T00:04:58.808Z,19.20
2018-07-12T00:07:26.144Z,17.93
2018-07-12T00:09:53.570Z,19.93
2018-07-12T00:12:20.930Z,19.53
2018-07-12T00:14:48.310Z,21.30
2018-07-12T00:17:15.615Z,18.97
2018-07-12T00:19:42.954Z,21.23
2018-07-12T00:22:10.299Z,20.43
2018-07-12T00:24:37.628Z,19.80
2018-07-12T00:27:05.233Z,20.23
2018-07-12T00:29:32.631Z,20.47
2018-07-12T00:32:00.045Z,19.10
2018-07-12T00:34:27.382Z,19.70
2018-07-12T00:36:54.756Z,19.23
2018-07-12T00:39:22.061Z,21.20
2018-07-12T00:41:49.387Z,17.50
2018-07-12T00:44:16.686Z,19.83
2018-07-12T00:46:44.108Z,19.73
2018-07-12T00:49:11.409Z,18.83
2018-07-12T00:51:38.744Z,19.53
2018-07-12T00:54:06.015Z,18.53
2018-07-12T00:56:33.344Z,18.27
2018-07-12T00:59:00.691Z,18.87
2018-07-12T01:01:28.041Z,19.50
2018-07-12T01:03:55.350Z,18.97
2018-07-12T01:06:22.716Z,20.63
2018-07-12T01:08:50.049Z,20.87
2018-07-12T01:11:17.402Z,21.33
2018-07-12T01:13:44.717Z,21.23
2018-07-12T01:16:12.040Z,20.57
2018-07-12T01:18:39.464Z,20.93
2018-07-12T01:21:06.819Z,21.30
2018-07-12T01:23:34.115Z,21.13
2018-07-12T01:26:01.493Z,21.60
2018-07-12T01:28:28.808Z,24.57
2018-07-12T01:30:56.196Z,22.33
2018-07-12T01:33:23.524Z,22.50
2018-07-12T01:35:50.860Z,21.63
2018-07-12T01:38:18.190Z,21.27
2018-07-12T01:40:45.521Z,20.70
2018-07-12T01:43:12.816Z,21.30
2018-07-12T01:45:40.197Z,21.20
2018-07-12T01:48:07.519Z,21.93
2018-07-12T01:50:34.941Z,22.77
2018-07-12T01:53:02.312Z,22.80
2018-07-12T01:55:29.726Z,23.03
2018-07-12T01:57:57.072Z,23.87
2018-07-12T02:00:24.393Z,23.93
2018-07-12T02:02:51.764Z,22.93
2018-07-12T02:05:19.307Z,23.60
2018-07-12T02:07:47.441Z,23.60
2018-07-12T02:10:14.926Z,24.20
2018-07-12T02:12:42.455Z,27.57
2018-07-12T02:15:09.918Z,26.83
2018-07-12T02:17:37.313Z,27.63
2018-07-12T02:20:04.637Z,28.67
2018-07-12T02:22:31.989Z,26.83
2018-07-12T02:24:59.316Z,27.70
2018-07-12T02:27:26.644Z,27.23
2018-07-12T02:29:53.957Z,28.80
2018-07-12T02:32:21.337Z,28.60
2018-07-12T02:34:48.721Z,25.80
2018-07-12T02:37:16.067Z,27.33
2018-07-12T02:39:43.442Z,24.30
2018-07-12T02:42:10.816Z,25.50
2018-07-12T02:44:38.156Z,29.33
2018-07-12T02:47:05.503Z,30.00
2018-07-12T02:49:32.848Z,33.37
2018-07-12T02:52:00.206Z,28.70
2018-07-12T02:54:27.541Z,31.90
2018-07-12T02:56:54.906Z,28.50
2018-07-12T02:59:22.243Z,31.60
2018-07-12T03:01:49.635Z,29.70
2018-07-12T03:04:16.993Z,30.70
2018-07-12T03:06:44.424Z,34.20
2018-07-12T03:09:11.868Z,31.00
2018-07-12T03:11:39.217Z,33.63
2018-07-12T03:14:06.710Z,32.03
2018-07-12T03:16:34.093Z,30.13
2018-07-12T03:19:01.471Z,27.87
2018-07-12T03:21:28.851Z,26.77
2018-07-12T03:23:56.151Z,30.63
2018-07-12T03:26:23.531Z,27.20
2018-07-12T03:28:50.899Z,26.57
2018-07-12T03:31:18.273Z,28.13
2018-07-12T03:33:45.637Z,31.17
2018-07-12T03:36:12.953Z,29.50
2018-07-12T03:38:40.336Z,29.10
2018-07-12T03:41:07.634Z,27.63
2018-07-12T03:43:34.926Z,30.57
2018-07-12T03:46:02.346Z,28.03
2018-07-12T03:48:29.727Z,27.77
2018-07-12T03:50:57.062Z,24.87
2018-07-12T03:53:24.477Z,26.83
2018-07-12T03:55:51.889Z,28.57
2018-07-12T03:58:19.241Z,25.77
2018-07-12T04:00:46.637Z,24.67
2018-07-12T04:03:14.089Z,28.87
2018-07-12T04:05:41.530Z,27.20
2018-07-12T04:08:08.963Z,28.60
2018-07-12T04:10:36.353Z,26.43
2018-07-12T04:13:03.686Z,28.27
2018-07-12T04:15:31.858Z,26.17
2018-07-12T04:17:59.282Z,25.57
2018-07-12T04:20:26.723Z,25.83
2018-07-12T04:22:54.159Z,26.57
2018-07-12T04:25:21.570Z,30.10
2018-07-12T04:27:49.135Z,27.27
2018-07-12T04:30:16.483Z,25.40
2018-07-12T04:32:43.827Z,26.93
2018-07-12T04:35:11.307Z,27.47
2018-07-12T04:37:38.709Z,41.23
2018-07-12T04:40:06.155Z,43.17
2018-07-12T04:42:33.546Z,47.83
2018-07-12T04:45:01.047Z,56.97
2018-07-12T04:47:28.536Z,59.53
2018-07-12T04:49:55.848Z,60.50
2018-07-12T04:52:23.220Z,60.63
2018-07-12T04:54:50.572Z,64.73
2018-07-12T04:57:17.935Z,64.13
2018-07-12T04:59:45.302Z,66.43
2018-07-12T05:02:12.630Z,64.33
2018-07-12T05:04:40.013Z,67.03
2018-07-12T05:07:07.400Z,66.97
2018-07-12T05:09:34.852Z,59.00
2018-07-12T05:12:03.175Z,57.07
2018-07-12T05:14:30.685Z,57.97
2018-07-12T05:16:58.029Z,57.70
2018-07-12T05:19:25.449Z,57.30
2018-07-12T05:21:52.867Z,62.03
2018-07-12T05:24:20.192Z,60.83
2018-07-12T05:26:48.310Z,59.87
2018-07-12T05:29:18.101Z,61.07
2018-07-12T05:31:46.285Z,58.03
2018-07-12T05:34:18.027Z,60.43
2018-07-12T05:37:03.627Z,65.40
2018-07-12T05:39:38.944Z,63.70
2018-07-12T05:42:13.325Z,63.03
2018-07-12T05:44:44.461Z,62.93
2018-07-12T05:47:21.387Z,56.77
2018-07-12T05:49:50.605Z,62.53
2018-07-12T06:34:45.857Z,70.13
2018-07-12T06:37:15.687Z,66.10
2018-07-12T06:39:44.710Z,67.17
2018-07-12T06:42:13.644Z,66.63
2018-07-12T06:44:43.117Z,69.30
2018-07-12T06:47:15.653Z,70.27
2018-07-12T06:49:44.635Z,69.40
2018-07-12T06:52:13.513Z,73.50
2018-07-12T06:54:43.378Z,82.03
2018-07-12T06:57:23.779Z,82.47
2018-07-12T06:59:52.519Z,87.37
2018-07-12T07:02:21.347Z,87.67
2018-07-12T07:04:50.056Z,87.93
2018-07-12T07:07:18.683Z,83.43
2018-07-12T07:09:47.683Z,82.33
2018-07-12T07:12:16.371Z,83.17
2018-07-12T07:14:45.119Z,80.87
2018-07-12T07:17:13.883Z,76.07
2018-07-12T07:19:42.708Z,77.30
2018-07-12T07:22:11.300Z,72.70
2018-07-12T07:24:39.958Z,77.97
2018-07-12T07:27:08.671Z,73.90
2018-07-12T07:29:37.234Z,77.20
2018-07-12T07:32:05.869Z,67.53
2018-07-12T07:34:34.532Z,68.90
2018-07-12T07:37:03.333Z,54.80
2018-07-12T07:39:32.049Z,55.00
2018-07-12T07:42:00.788Z,56.43
2018-07-12T07:44:29.415Z,57.13
2018-07-12T07:46:58.016Z,59.93
2018-07-12T07:49:26.583Z,52.67
2018-07-12T07:51:55.228Z,52.03
2018-07-12T07:54:23.812Z,55.23
2018-07-12T07:56:52.726Z,53.43
2018-07-12T07:59:21.596Z,53.70
2018-07-12T08:01:50.290Z,56.67
2018-07-12T08:04:19.063Z,55.43
2018-07-12T08:06:48.467Z,56.00
2018-07-12T08:09:17.363Z,54.40
2018-07-12T08:11:46.270Z,48.33
2018-07-12T08:14:15.088Z,50.63
2018-07-12T08:16:45.940Z,49.37
2018-07-12T08:19:14.802Z,54.77
2018-07-12T08:21:43.475Z,51.27
2018-07-12T08:24:12.248Z,47.40
2018-07-12T08:26:41.192Z,46.93
2018-07-12T08:29:12.060Z,43.63
2018-07-12T08:31:40.958Z,44.57
2018-07-12T08:34:09.812Z,40.63
2018-07-12T08:36:38.810Z,39.47
2018-07-12T08:39:10.849Z,40.13
2018-07-12T08:41:39.887Z,40.83
2018-07-12T08:44:08.962Z,38.67
2018-07-12T08:46:38.125Z,37.30
2018-07-12T08:49:07.160Z,35.43
2018-07-12T08:51:36.179Z,36.13
2018-07-12T08:54:05.307Z,36.43
2018-07-12T08:56:34.448Z,39.07
2018-07-12T08:59:03.446Z,38.63
2018-07-12T09:01:32.232Z,34.45
2018-07-12T09:04:01.461Z,32.65
2018-07-12T09:06:30.205Z,33.48
2018-07-12T09:08:58.881Z,33.78
2018-07-12T09:11:28.135Z,36.45
2018-07-12T09:13:56.753Z,34.43
2018-07-12T09:16:25.362Z,33.90
2018-07-12T09:18:53.892Z,34.00
2018-07-12T09:21:22.395Z,34.65
2018-07-12T09:23:51.328Z,30.52
2018-07-12T09:26:20.270Z,30.52
2018-07-12T09:28:48.851Z,30.25
2018-07-12T09:31:17.457Z,25.12
2018-07-12T09:33:47.254Z,25.35
2018-07-12T09:36:15.853Z,24.40
2018-07-12T09:38:52.808Z,25.17
2018-07-12T09:41:22.044Z,24.32
2018-07-12T09:43:51.039Z,30.20
2018-07-12T09:46:19.748Z,33.05
2018-07-12T09:48:49.538Z,36.33
2018-07-12T09:51:18.112Z,39.18
2018-07-12T09:53:47.455Z,38.28
2018-07-12T09:56:16.073Z,36.83
2018-07-12T09:58:44.681Z,38.58
2018-07-12T10:01:18.528Z,37.42
2018-07-12T10:03:53.638Z,39.33
2018-07-12T10:06:26.128Z,37.75
2018-07-12T10:09:59.943Z,35.28
2018-07-12T10:12:33.085Z,32.23
2018-07-12T10:15:07.505Z,30.52
2018-07-12T10:17:41.463Z,30.08
2018-07-12T10:20:10.384Z,29.85
2018-07-12T10:22:39.056Z,25.77
2018-07-12T10:25:08.007Z,25.85
2018-07-12T10:27:36.699Z,23.35
2018-07-12T10:30:05.641Z,21.65
2018-07-12T10:32:34.572Z,20.65
2018-07-12T10:35:03.268Z,17.37
2018-07-12T10:37:31.889Z,17.40
2018-07-12T10:40:00.437Z,15.78
2018-07-12T10:42:29.017Z,15.48
2018-07-12T10:44:57.553Z,15.43
2018-07-12T10:47:26.821Z,15.30
2018-07-12T10:49:55.409Z,14.18
2018-07-12T10:52:24.008Z,13.50
2018-07-12T10:54:52.545Z,12.78
2018-07-12T10:57:21.143Z,13.53
2018-07-12T10:59:49.767Z,15.43
2018-07-12T11:02:18.452Z,14.73
2018-07-12T11:04:47.094Z,14.98
2018-07-12T11:07:15.860Z,16.25
2018-07-12T11:09:44.478Z,14.10
2018-07-12T11:12:13.301Z,14.20
2018-07-12T11:14:41.839Z,14.18
2018-07-12T11:17:10.526Z,13.40
2018-07-12T11:19:39.132Z,12.43
2018-07-12T11:22:07.845Z,11.80
2018-07-12T11:24:36.568Z,10.72
2018-07-12T11:27:05.253Z,12.30
2018-07-12T11:29:44.921Z,15.88
2018-07-12T11:32:13.545Z,14.23
2018-07-12T11:34:42.083Z,12.78
2018-07-12T11:37:15.371Z,13.32
2018-07-12T11:39:43.942Z,45.05
2018-07-12T11:42:12.465Z,13.95
2018-07-12T11:44:40.980Z,26.37
2018-07-12T11:47:09.594Z,15.48
2018-07-12T11:49:38.123Z,16.40
2018-07-12T11:52:07.065Z,14.38
2018-07-12T11:54:35.751Z,14.43
2018-07-12T11:57:04.510Z,15.45
2018-07-12T11:59:33.175Z,14.60
2018-07-12T12:02:04.310Z,17.30
2018-07-12T12:04:32.947Z,22.40
2018-07-12T12:07:01.881Z,14.60
2018-07-12T12:09:30.475Z,12.90
2018-07-12T12:11:59.266Z,15.28
2018-07-12T12:14:27.885Z,14.47
2018-07-12T12:16:56.515Z,12.88
2018-07-12T12:19:25.176Z,13.60
2018-07-12T12:21:54.117Z,12.82
2018-07-12T12:24:22.776Z,14.13
2018-07-12T12:26:51.637Z,15.10
2018-07-12T12:29:20.305Z,13.93
2018-07-12T12:31:48.973Z,12.70
2018-07-12T12:34:17.779Z,15.83
2018-07-12T12:36:46.359Z,14.27
2018-07-12T12:39:15.004Z,13.30
2018-07-12T12:41:43.714Z,12.63
2018-07-12T12:44:12.576Z,14.20
2018-07-12T12:46:41.304Z,14.10
2018-07-12T12:49:10.050Z,13.10
2018-07-12T12:51:39.001Z,12.60
2018-07-12T12:54:07.756Z,11.80
2018-07-12T12:56:36.414Z,12.20
2018-07-12T12:59:05.087Z,13.43
2018-07-12T13:01:33.820Z,12.53
2018-07-12T13:04:02.609Z,13.00
2018-07-12T13:06:31.375Z,12.30
2018-07-12T13:09:00.867Z,12.63
2018-07-12T13:11:29.701Z,13.17
2018-07-12T13:13:58.498Z,12.70
2018-07-12T13:16:27.231Z,13.40
2018-07-12T13:18:56.439Z,11.70
2018-07-12T13:21:25.099Z,12.77
2018-07-12T13:23:53.916Z,12.57
2018-07-12T13:26:22.548Z,13.67
2018-07-12T13:28:52.146Z,11.63
2018-07-12T13:31:20.702Z,11.27
2018-07-12T13:33:49.285Z,10.77
2018-07-12T13:36:17.904Z,11.73
2018-07-12T13:38:46.486Z,12.43
2018-07-12T13:41:15.042Z,11.83
2018-07-12T13:43:43.656Z,11.23
2018-07-12T13:46:12.174Z,11.17
2018-07-12T13:48:40.801Z,11.30
2018-07-12T13:51:09.390Z,10.73
2018-07-12T13:53:38.107Z,9.33
2018-07-12T13:56:06.620Z,11.80
2018-07-12T13:58:35.260Z,10.43
2018-07-12T14:01:03.946Z,9.93
2018-07-12T14:03:32.742Z,9.60
2018-07-12T14:06:01.776Z,8.70
2018-07-12T14:08:30.429Z,11.43
2018-07-12T14:10:58.998Z,9.53
2018-07-12T14:13:27.621Z,9.40
2018-07-12T14:15:56.246Z,9.07
2018-07-12T14:18:24.927Z,9.20
2018-07-12T14:20:53.616Z,8.93
2018-07-12T14:23:22.282Z,9.47
2018-07-12T14:25:50.859Z,9.23
2018-07-12T14:28:19.412Z,9.00
2018-07-12T14:30:47.947Z,9.90
2018-07-12T14:33:16.576Z,9.40
2018-07-12T14:35:45.115Z,10.37
2018-07-12T14:38:13.643Z,8.77
2018-07-12T14:40:42.202Z,9.23
2018-07-12T14:43:10.772Z,9.23
2018-07-12T14:45:39.358Z,8.90
2018-07-12T14:48:08.156Z,10.13
2018-07-12T14:50:36.828Z,9.63
2018-07-12T14:53:05.501Z,10.30
2018-07-12T14:55:34.027Z,10.43
2018-07-12T14:58:02.672Z,9.27
2018-07-12T15:00:31.491Z,9.13
2018-07-12T15:03:00.084Z,9.13
2018-07-12T15:05:28.804Z,7.87
2018-07-12T15:07:57.441Z,7.50
2018-07-12T15:10:26.116Z,8.77
2018-07-12T15:12:54.662Z,7.90
2018-07-12T15:15:23.222Z,8.17
2018-07-12T15:17:51.692Z,7.97
2018-07-12T15:20:20.302Z,7.53
2018-07-12T15:22:48.766Z,8.97
2018-07-12T15:25:17.291Z,7.07
2018-07-12T15:27:46.191Z,6.63
2018-07-12T15:30:14.735Z,6.60
2018-07-12T15:32:43.309Z,5.90
2018-07-12T15:35:12.308Z,6.07
2018-07-12T15:37:40.902Z,6.47
2018-07-12T15:40:09.555Z,6.20
2018-07-12T15:42:38.092Z,6.07
2018-07-12T15:45:06.743Z,6.57
2018-07-12T15:47:35.419Z,6.20
2018-07-12T15:50:04.002Z,5.27
2018-07-12T15:52:32.609Z,6.17
2018-07-12T15:55:01.263Z,6.10
2018-07-12T15:57:29.847Z,5.70
2018-07-12T15:59:58.445Z,7.30
2018-07-12T16:02:27.039Z,12.67
2018-07-12T16:04:57.154Z,5.67
2018-07-12T16:07:26.238Z,9.67
2018-07-12T16:09:55.990Z,5.63
2018-07-12T16:12:24.615Z,7.10
2018-07-12T16:14:53.447Z,5.30
2018-07-12T16:17:22.401Z,6.50
2018-07-12T16:19:51.089Z,6.50
2018-07-12T16:22:19.805Z,5.17
2018-07-12T16:24:48.448Z,5.70
2018-07-12T16:27:17.071Z,4.40
2018-07-12T16:29:47.112Z,4.87
2018-07-12T16:32:17.300Z,5.40
2018-07-12T16:34:49.445Z,8.20
2018-07-12T16:37:18.447Z,4.73
2018-07-12T16:39:48.816Z,4.80
2018-07-12T16:42:17.877Z,3.93
2018-07-12T16:44:46.621Z,4.67
2018-07-12T16:47:15.460Z,4.73
2018-07-12T16:49:44.285Z,6.10
2018-07-12T16:52:12.944Z,26.13
2018-07-12T16:54:41.659Z,21.93
2018-07-12T16:57:13.673Z,13.70
2018-07-12T16:59:42.510Z,7.67
2018-07-12T17:02:11.186Z,5.13
2018-07-12T17:04:39.935Z,5.73
2018-07-12T17:07:08.657Z,7.63
2018-07-12T17:09:37.283Z,8.53
2018-07-12T17:12:05.976Z,6.40
2018-07-12T17:14:34.588Z,10.10
2018-07-12T17:17:03.915Z,6.33
2018-07-12T17:19:32.542Z,4.77
2018-07-12T17:22:01.470Z,6.30
2018-07-12T17:24:30.089Z,4.90
2018-07-12T17:27:00.100Z,4.67
2018-07-12T17:29:28.724Z,4.67
2018-07-12T17:31:59.165Z,5.40
2018-07-12T17:34:28.348Z,5.20
2018-07-12T17:36:57.327Z,5.50
2018-07-12T17:39:26.201Z,7.10
2018-07-12T17:41:54.954Z,6.53
2018-07-12T17:44:23.645Z,7.30
2018-07-12T17:46:52.302Z,4.90
2018-07-12T17:49:20.981Z,5.70
2018-07-12T17:51:49.653Z,5.63
2018-07-12T17:54:19.181Z,5.53
2018-07-12T17:56:48.369Z,4.87
2018-07-12T17:59:17.378Z,6.23
2018-07-12T18:01:48.323Z,5.03
2018-07-12T18:04:18.318Z,5.27
2018-07-12T18:06:47.145Z,5.83
2018-07-12T18:09:15.964Z,6.63
2018-07-12T18:11:44.781Z,4.90
2018-07-12T18:14:13.601Z,5.70
2018-07-12T18:16:43.133Z,7.13
2018-07-12T18:19:12.187Z,6.47
2018-07-12T18:21:41.057Z,6.50
2018-07-12T18:24:09.976Z,4.83
2018-07-12T18:26:38.734Z,5.63
2018-07-12T18:29:07.524Z,7.80
2018-07-12T18:31:36.318Z,8.70
2018-07-12T18:34:05.147Z,4.40
2018-07-12T18:36:34.606Z,5.47
2018-07-12T18:39:04.686Z,6.07
2018-07-12T18:41:36.989Z,7.23
2018-07-12T18:44:06.144Z,4.40
2018-07-12T18:46:35.065Z,4.63
2018-07-12T18:49:04.643Z,4.60
2018-07-12T18:51:33.718Z,5.73
2018-07-12T18:54:02.621Z,4.87
2018-07-12T18:56:31.576Z,6.33
2018-07-12T18:59:00.468Z,5.00
2018-07-12T19:01:29.345Z,5.27
2018-07-12T19:03:58.227Z,4.50
2018-07-12T19:06:27.148Z,5.30
2018-07-12T19:08:55.982Z,4.20
2018-07-12T19:11:24.686Z,3.87
2018-07-12T19:13:53.485Z,5.50
2018-07-12T19:16:22.492Z,4.40
2018-07-12T19:18:51.223Z,4.13
2018-07-12T19:21:19.969Z,5.70
2018-07-12T19:23:49.654Z,4.30
2018-07-12T19:26:18.786Z,4.47
2018-07-12T19:28:47.521Z,4.03
2018-07-12T19:31:16.349Z,4.00
2018-07-12T19:33:45.181Z,5.10
2018-07-12T19:36:14.082Z,5.47
2018-07-12T19:38:42.869Z,4.37
2018-07-12T19:41:11.600Z,4.97
2018-07-12T19:43:40.293Z,4.97
2018-07-12T19:46:09.052Z,4.40
2018-07-12T19:48:37.876Z,5.77
2018-07-12T19:51:07.040Z,4.93
2018-07-12T19:53:35.819Z,5.03
2018-07-12T19:56:04.664Z,5.93
2018-07-12T19:58:33.367Z,5.50
2018-07-12T20:01:02.177Z,6.70
2018-07-12T20:03:30.873Z,6.30
2018-07-12T20:05:59.521Z,9.00
2018-07-12T20:08:28.317Z,6.80
2018-07-12T20:10:56.910Z,7.03
2018-07-12T20:13:25.590Z,9.10
2018-07-12T20:15:54.143Z,6.30
2018-07-12T20:18:23.731Z,7.23
2018-07-12T20:20:52.302Z,8.00
2018-07-12T20:23:20.862Z,7.63
2018-07-12T20:25:49.437Z,8.63
2018-07-12T20:28:17.960Z,8.17
2018-07-12T20:30:46.438Z,8.23
2018-07-12T20:33:15.067Z,7.93
2018-07-12T20:35:43.708Z,7.70
2018-07-12T20:38:12.345Z,8.13
2018-07-12T20:40:40.952Z,13.57
2018-07-12T20:43:10.428Z,8.23
2018-07-12T20:45:39.034Z,10.13
2018-07-12T20:48:07.695Z,8.40
2018-07-12T20:50:36.366Z,8.63
2018-07-12T20:53:04.970Z,8.60
2018-07-12T20:55:33.484Z,8.63
2018-07-12T20:58:01.943Z,8.40
2018-07-12T21:00:30.515Z,8.57
2018-07-12T21:02:59.048Z,8.73
2018-07-12T21:05:27.634Z,9.40
2018-07-12T21:07:56.218Z,9.00
2018-07-12T21:10:24.886Z,10.10
2018-07-12T21:12:53.479Z,8.87
2018-07-12T21:15:22.079Z,9.73
2018-07-12T21:17:54.302Z,8.90
2018-07-12T21:20:22.883Z,8.83
2018-07-12T21:22:51.702Z,8.73
2018-07-12T21:25:20.478Z,8.47
2018-07-12T21:27:49.138Z,8.97
2018-07-12T21:30:17.793Z,9.77
2018-07-12T21:32:46.391Z,9.23
2018-07-12T21:35:14.995Z,9.20
2018-07-12T21:37:43.678Z,9.70
2018-07-12T21:40:12.969Z,9.20
2018-07-12T21:42:41.917Z,8.87
2018-07-12T21:45:10.623Z,9.67
2018-07-12T21:47:39.271Z,8.70
2018-07-12T21:50:08.021Z,9.20
2018-07-12T21:52:36.640Z,8.87
2018-07-12T21:55:05.432Z,9.73
2018-07-12T21:57:34.324Z,9.10
2018-07-12T22:00:03.021Z,9.40
2018-07-12T22:02:32.535Z,9.67
2018-07-12T22:05:01.285Z,10.03
2018-07-12T22:07:43.146Z,8.90
2018-07-12T22:10:11.855Z,10.93
2018-07-12T22:12:40.620Z,9.73
2018-07-12T22:15:09.746Z,11.03
2018-07-12T22:17:38.462Z,9.67
2018-07-12T22:20:07.163Z,8.73
2018-07-12T22:22:36.619Z,12.37
2018-07-12T22:25:05.268Z,9.43
2018-07-12T22:27:33.986Z,9.10
2018-07-12T22:30:02.708Z,9.87
2018-07-12T22:32:31.441Z,10.77
2018-07-12T22:35:00.146Z,9.97
2018-07-12T22:37:28.924Z,9.43
2018-07-12T22:39:57.571Z,10.33
2018-07-12T22:42:26.273Z,9.30
2018-07-12T22:44:54.787Z,10.37
2018-07-12T22:47:23.442Z,9.13
2018-07-12T22:49:51.988Z,9.80
2018-07-12T22:52:21.634Z,9.87
2018-07-12T22:54:50.853Z,10.63
2018-07-12T22:57:19.646Z,10.23
2018-07-12T22:59:48.876Z,10.37
2018-07-12T23:02:17.605Z,9.40
2018-07-12T23:04:46.263Z,10.20
2018-07-12T23:07:14.933Z,11.80
2018-07-12T23:09:43.736Z,10.27
2018-07-12T23:12:12.537Z,10.67
2018-07-12T23:14:41.110Z,12.27
2018-07-12T23:17:09.728Z,9.43
2018-07-12T23:19:38.382Z,10.53
2018-07-12T23:22:06.967Z,10.63
2018-07-12T23:24:35.583Z,9.93
2018-07-12T23:27:04.150Z,11.93
2018-07-12T23:29:32.746Z,12.13
2018-07-12T23:32:01.289Z,10.63
2018-07-12T23:34:29.997Z,11.10
2018-07-12T23:36:58.572Z,11.60
2018-07-12T23:39:27.345Z,10.83
2018-07-12T23:41:56.026Z,10.23
2018-07-12T23:44:24.553Z,9.57
2018-07-12T23:46:53.179Z,10.37
2018-07-12T23:49:21.936Z,10.47
2018-07-12T23:51:50.449Z,11.03
2018-07-12T23:54:19.102Z,9.90
2018-07-12T23:56:47.599Z,11.93
2018-07-12T23:59:16.334Z,10.47
